Login to view Products
 
Monday, April 23, 2018 (22:40 UTC)
Sharjah International Airport
ICAO: OMSJ
IATA: SHJ
  • METAR OMSJ 232230Z 10003KT CAVOK 27/18 Q1008=
  • TAF OMSJ 231656Z 2318/2500 10008KT 8000 NSC BECMG 2402/2404 18010KT PROB30 2403/2407 4000 DU BECMG 2407/2409 30014KT BECMG 2415/2417 09005KT=
D:\Input Parser\Destinations\Final\16\OMSJL18001656858774477.txt